Time;durP1;ratioP1;P1;durP2;ratioP2;P2;SDS_P1;SDS_P2;PMS_P1;PMS_P2;Temp;Humidity;BMP_temperature;BMP_pressure;BME280_temperature;BME280_humidity;BME280_pressure;Samples;Min_cycle;Max_cycle;Signal;HPM_P1;HPM_P2
2022/10/24 00:00:44;;;;;;;4.75;1.70;;;19.60;67.70;;;;;;6261416;22;20417;-69
2022/10/24 00:03:10;;;;;;;3.90;1.60;;;19.60;67.60;;;;;;6260155;22;20072;-71
2022/10/24 00:05:39;;;;;;;2.63;1.50;;;19.60;67.60;;;;;;6232067;22;20274;-72
2022/10/24 00:08:05;;;;;;;2.75;1.80;;;19.60;67.60;;;;;;6259737;22;20055;-72
2022/10/24 00:10:31;;;;;;;3.80;1.70;;;19.60;67.60;;;;;;6260553;22;20403;-72
2022/10/24 00:12:56;;;;;;;1.73;1.42;;;19.60;67.60;;;;;;6258457;22;20388;-72
2022/10/24 00:15:22;;;;;;;2.88;1.58;;;19.60;67.60;;;;;;6262183;22;20016;-72
2022/10/24 00:17:47;;;;;;;2.40;1.60;;;19.60;67.60;;;;;;6259301;22;20111;-71
2022/10/24 00:20:13;;;;;;;4.63;1.70;;;19.60;67.60;;;;;;6261481;22;20015;-72
2022/10/24 00:22:39;;;;;;;2.78;1.60;;;19.60;67.60;;;;;;6259909;22;20027;-72
2022/10/24 00:25:05;;;;;;;2.40;1.85;;;19.60;67.50;;;;;;6234830;22;20028;-70
2022/10/24 00:27:32;;;;;;;5.43;1.50;;;19.60;67.50;;;;;;6260723;22;20016;-71
2022/10/24 00:29:57;;;;;;;2.40;1.60;;;19.50;67.40;;;;;;6261518;22;20094;-71
2022/10/24 00:32:23;;;;;;;2.17;1.55;;;19.60;67.40;;;;;;6262146;22;20530;-71
2022/10/24 00:34:49;;;;;;;4.80;1.63;;;19.60;67.50;;;;;;6260867;22;20324;-71
2022/10/24 00:37:14;;;;;;;3.80;1.70;;;19.60;67.40;;;;;;6235959;22;20098;-71
2022/10/24 00:39:40;;;;;;;2.72;1.45;;;19.60;67.30;;;;;;6235271;22;20448;-69
2022/10/24 00:42:05;;;;;;;4.40;1.52;;;19.60;67.30;;;;;;6263673;22;20020;-71
2022/10/24 00:44:35;;;;;;;2.97;1.60;;;19.60;67.30;;;;;;6234590;22;20023;-72
2022/10/24 00:47:16;;;;;;;2.55;1.50;;;19.60;67.40;;;;;;6262296;22;20067;-71
2022/10/24 00:50:04;;;;;;;2.83;1.70;;;19.60;67.30;;;;;;6262662;22;20030;-71
2022/10/24 00:52:35;;;;;;;4.03;1.70;;;19.60;67.20;;;;;;6261634;22;20015;-72
2022/10/24 00:55:03;;;;;;;2.50;1.42;;;19.60;67.30;;;;;;6236793;22;20012;-72
2022/10/24 00:57:38;;;;;;;3.25;2.15;;;19.60;67.20;;;;;;6262796;22;20356;-72
2022/10/24 01:00:10;;;;;;;1.98;1.40;;;19.60;67.20;;;;;;6263610;22;20023;-72
2022/10/24 01:02:36;;;;;;;4.50;1.60;;;19.60;67.20;;;;;;6260735;22;20475;-73
2022/10/24 01:05:03;;;;;;;4.28;1.63;;;19.60;67.20;;;;;;6261459;22;20074;-73
2022/10/24 01:08:00;;;;;;;2.22;1.50;;;19.60;67.20;;;;;;6263307;22;20028;-73
2022/10/24 01:10:36;;;;;;;4.65;1.60;;;19.60;67.20;;;;;;6263177;22;20027;-73
2022/10/24 01:13:13;;;;;;;2.67;1.58;;;19.60;67.10;;;;;;6261973;22;20020;-73
2022/10/24 01:15:52;;;;;;;2.25;1.60;;;19.60;67.10;;;;;;6262280;22;20374;-73
2022/10/24 01:18:23;;;;;;;;;;;19.60;67.10;;;;;;6232120;22;20509;-72
2022/10/24 01:20:59;;;;;;;3.28;1.50;;;19.60;67.00;;;;;;6263581;22;19949;-72
2022/10/24 01:23:51;;;;;;;2.45;1.55;;;19.60;67.10;;;;;;6261386;22;20015;-71
2022/10/24 01:26:52;;;;;;;2.97;1.50;;;19.60;67.10;;;;;;6262214;22;20015;-72
2022/10/24 01:29:42;;;;;;;2.45;1.60;;;19.60;67.00;;;;;;6236347;22;20794;-71
2022/10/24 01:32:30;;;;;;;2.22;1.50;;;19.60;67.00;;;;;;6262273;22;20050;-70
2022/10/24 01:35:20;;;;;;;2.38;1.38;;;19.60;67.00;;;;;;6232431;22;20060;-72
2022/10/24 01:37:50;;;;;;;2.72;1.50;;;19.60;67.00;;;;;;6263450;22;20077;-73
2022/10/24 01:40:34;;;;;;;3.53;1.70;;;19.50;66.90;;;;;;6260787;22;20356;-71
2022/10/24 01:43:06;;;;;;;2.40;1.55;;;19.60;66.90;;;;;;6261142;22;20089;-72
2022/10/24 01:45:35;;;;;;;3.70;1.60;;;19.60;67.00;;;;;;6263415;22;20102;-73
2022/10/24 01:48:02;;;;;;;;;;;19.60;67.00;;;;;;6233579;22;20024;-70
2022/10/24 01:50:28;;;;;;;1.67;1.40;;;19.50;66.90;;;;;;6263483;22;19922;-71
2022/10/24 01:52:57;;;;;;;4.32;1.70;;;19.60;67.00;;;;;;6234195;22;20019;-72
2022/10/24 01:55:23;;;;;;;3.17;1.70;;;19.60;66.90;;;;;;6235682;22;20020;-72
2022/10/24 01:57:49;;;;;;;2.80;1.52;;;19.60;66.90;;;;;;6261664;22;20016;-72
2022/10/24 02:00:19;;;;;;;4.05;1.45;;;19.60;66.90;;;;;;6262177;22;20185;-70
2022/10/24 02:02:56;;;;;;;3.30;1.50;;;19.60;66.90;;;;;;6234050;22;20026;-70
2022/10/24 02:05:33;;;;;;;4.28;1.75;;;19.60;66.90;;;;;;6261607;22;20102;-72
2022/10/24 02:08:07;;;;;;;3.00;1.50;;;19.60;66.90;;;;;;6262645;22;20022;-70
2022/10/24 02:10:40;;;;;;;2.35;1.60;;;19.60;66.90;;;;;;6260933;22;20024;-73
2022/10/24 02:13:12;;;;;;;3.00;1.65;;;19.60;66.90;;;;;;6235367;22;20020;-71
2022/10/24 02:15:45;;;;;;;5.72;1.42;;;19.60;66.80;;;;;;6262287;22;20039;-72
2022/10/24 02:18:11;;;;;;;3.30;1.40;;;19.60;66.90;;;;;;6259226;22;20023;-71
2022/10/24 02:20:58;;;;;;;1.50;1.13;;;19.60;66.90;;;;;;6263016;22;20113;-72
2022/10/24 02:23:37;;;;;;;2.53;1.52;;;19.60;66.80;;;;;;6233310;22;20371;-70
2022/10/24 02:26:09;;;;;;;3.00;1.50;;;19.60;66.90;;;;;;6263706;22;20019;-73
2022/10/24 02:28:41;;;;;;;3.10;1.40;;;19.60;66.80;;;;;;6263211;22;20007;-73
2022/10/24 02:31:22;;;;;;;2.30;1.50;;;19.60;66.90;;;;;;6234927;22;20019;-72
2022/10/24 02:33:49;;;;;;;2.25;1.50;;;19.60;66.80;;;;;;6261541;22;20031;-71
2022/10/24 02:36:18;;;;;;;3.80;1.40;;;19.60;66.90;;;;;;6261826;22;20023;-73
2022/10/24 02:38:47;;;;;;;2.63;1.27;;;19.60;66.80;;;;;;6260771;22;20243;-72
2022/10/24 02:41:20;;;;;;;3.90;1.58;;;19.50;66.70;;;;;;6263076;22;20016;-73
2022/10/24 02:43:49;;;;;;;1.88;1.50;;;19.60;66.80;;;;;;6261372;22;20022;-73
2022/10/24 02:46:17;;;;;;;3.10;1.30;;;19.60;66.80;;;;;;6235466;22;20020;-73
2022/10/24 02:48:49;;;;;;;4.00;1.30;;;19.50;66.70;;;;;;6257622;22;20019;-73
2022/10/24 02:51:17;;;;;;;4.60;1.40;;;19.60;66.70;;;;;;6263395;22;20435;-71
2022/10/24 02:53:43;;;;;;;3.10;1.42;;;19.60;66.70;;;;;;6232091;22;20019;-70
2022/10/24 02:56:08;;;;;;;2.42;1.55;;;19.60;66.70;;;;;;6262899;22;20086;-73
2022/10/24 02:58:34;;;;;;;2.20;1.30;;;19.60;66.70;;;;;;6261631;22;20027;-72
2022/10/24 03:01:00;;;;;;;3.88;1.40;;;19.60;66.70;;;;;;6262172;22;20082;-72
2022/10/24 03:03:25;;;;;;;3.10;1.60;;;19.60;66.70;;;;;;6260932;22;20074;-72
2022/10/24 03:05:51;;;;;;;3.13;1.40;;;19.60;66.70;;;;;;6207540;22;20148;-72
2022/10/24 03:08:16;;;;;;;2.78;1.40;;;19.60;66.70;;;;;;6261517;22;20015;-70
2022/10/24 03:10:42;;;;;;;2.05;1.38;;;19.60;66.60;;;;;;6259327;22;20033;-73
2022/10/24 03:13:07;;;;;;;3.25;1.60;;;19.60;66.60;;;;;;6234400;22;20103;-72
2022/10/24 03:15:33;;;;;;;3.10;1.30;;;19.60;66.50;;;;;;6259885;22;20076;-73
2022/10/24 03:17:58;;;;;;;4.68;1.60;;;19.60;66.50;;;;;;6231027;22;20444;-72
2022/10/24 03:20:24;;;;;;;3.20;1.42;;;19.60;66.50;;;;;;6261199;22;20281;-73
2022/10/24 03:22:50;;;;;;;2.95;1.52;;;19.50;66.50;;;;;;6260439;22;20041;-71
2022/10/24 03:25:16;;;;;;;5.15;1.67;;;19.60;66.50;;;;;;6261298;22;20020;-73
2022/10/24 03:27:41;;;;;;;3.40;1.40;;;19.60;66.50;;;;;;6260653;22;20472;-71
2022/10/24 03:30:08;;;;;;;2.42;1.40;;;19.50;66.50;;;;;;6234179;22;20028;-72
2022/10/24 03:32:34;;;;;;;3.10;1.30;;;19.50;66.40;;;;;;6260526;22;20467;-72
2022/10/24 03:35:00;;;;;;;3.13;1.70;;;19.60;66.40;;;;;;6235210;22;20022;-71
2022/10/24 03:37:26;;;;;;;3.13;1.48;;;19.60;66.40;;;;;;6260825;22;20518;-71
2022/10/24 03:39:52;;;;;;;2.20;1.40;;;19.60;66.40;;;;;;6260991;22;20023;-71
2022/10/24 03:42:17;;;;;;;3.33;1.40;;;19.60;66.40;;;;;;6233973;22;20102;-73
2022/10/24 03:44:43;;;;;;;3.53;1.75;;;19.60;66.40;;;;;;6260273;22;20031;-72
2022/10/24 03:47:08;;;;;;;3.97;1.70;;;19.60;66.40;;;;;;6262882;22;20349;-70
2022/10/24 03:49:34;;;;;;;5.88;1.60;;;19.60;66.30;;;;;;6258631;22;20097;-72
2022/10/24 03:52:00;;;;;;;3.55;1.55;;;19.60;66.30;;;;;;6261917;22;20576;-71
2022/10/24 03:54:25;;;;;;;2.45;1.27;;;19.60;66.30;;;;;;6260643;22;20016;-71
2022/10/24 03:56:51;;;;;;;3.35;1.60;;;19.60;66.30;;;;;;6261869;22;20014;-70
2022/10/24 03:59:17;;;;;;;3.13;1.52;;;19.50;66.20;;;;;;6235217;22;20125;-72
2022/10/24 04:01:42;;;;;;;4.03;1.60;;;19.60;66.20;;;;;;6258808;22;20323;-71
2022/10/24 04:04:08;;;;;;;2.72;1.52;;;19.50;66.10;;;;;;6259862;22;20015;-72
2022/10/24 04:06:34;;;;;;;2.88;1.75;;;19.60;66.90;;;;;;6259253;22;20129;-71
2022/10/24 04:09:00;;;;;;;3.92;1.70;;;19.60;66.20;;;;;;6260946;22;20058;-72
2022/10/24 04:11:25;;;;;;;4.45;1.40;;;19.60;66.10;;;;;;6259803;22;20020;-71
2022/10/24 04:13:51;;;;;;;3.15;1.35;;;19.60;66.10;;;;;;6233277;22;20863;-72
2022/10/24 04:16:19;;;;;;;4.75;1.65;;;19.60;66.10;;;;;;6260864;22;20460;-70
2022/10/24 04:18:45;;;;;;;5.75;1.70;;;19.50;66.00;;;;;;6259604;22;20008;-73
2022/10/24 04:21:10;;;;;;;5.55;1.40;;;19.60;66.00;;;;;;6260947;22;20095;-70
2022/10/24 04:23:39;;;;;;;3.13;1.35;;;19.50;66.00;;;;;;6257849;22;20127;-70
2022/10/24 04:26:06;;;;;;;3.47;1.50;;;19.50;65.90;;;;;;6260689;22;20094;-70
2022/10/24 04:28:32;;;;;;;2.38;1.48;;;19.50;65.90;;;;;;6261076;22;20053;-70
2022/10/24 04:30:58;;;;;;;3.60;1.25;;;19.50;65.90;;;;;;6259072;22;20070;-71
2022/10/24 04:33:24;;;;;;;4.70;1.67;;;19.60;65.90;;;;;;6232116;22;20118;-73
2022/10/24 04:35:51;;;;;;;4.65;1.70;;;19.50;65.80;;;;;;6259654;22;20069;-73
2022/10/24 04:38:17;;;;;;;4.57;1.38;;;19.50;65.90;;;;;;6209209;22;20066;-72
2022/10/24 04:40:48;;;;;;;3.08;1.67;;;19.60;65.80;;;;;;6258129;22;20450;-71
2022/10/24 04:43:14;;;;;;;4.80;1.33;;;19.60;65.80;;;;;;6261780;22;20024;-70
2022/10/24 04:45:39;;;;;;;3.15;1.58;;;19.60;65.80;;;;;;6232001;22;20093;-69
2022/10/24 04:48:05;;;;;;;5.95;1.80;;;19.60;65.80;;;;;;6259646;22;20055;-69
2022/10/24 04:50:31;;;;;;;2.67;1.50;;;19.60;65.70;;;;;;6260330;22;20024;-71
2022/10/24 04:53:00;;;;;;;5.43;1.48;;;19.50;65.70;;;;;;6259629;22;20023;-71
2022/10/24 04:55:26;;;;;;;2.60;1.42;;;19.60;65.70;;;;;;6260607;22;20111;-72
2022/10/24 04:57:51;;;;;;;3.13;1.63;;;19.60;65.70;;;;;;6232537;22;20380;-72
2022/10/24 05:00:17;;;;;;;6.13;1.55;;;19.60;65.70;;;;;;6262344;22;20019;-70
2022/10/24 05:02:42;;;;;;;5.47;1.45;;;19.50;65.60;;;;;;6258196;22;20012;-71
2022/10/24 05:05:08;;;;;;;3.15;1.75;;;19.50;65.60;;;;;;6258710;22;20024;-72
2022/10/24 05:07:34;;;;;;;3.65;1.65;;;19.60;65.70;;;;;;6232289;22;20059;-72
2022/10/24 05:09:59;;;;;;;3.17;1.63;;;19.50;65.50;;;;;;6258575;22;20031;-70
2022/10/24 05:12:25;;;;;;;4.78;1.70;;;19.50;65.50;;;;;;6233617;22;20035;-70
2022/10/24 05:14:50;;;;;;;3.05;1.70;;;19.50;65.50;;;;;;6232919;22;20042;-71
2022/10/24 05:17:16;;;;;;;6.63;1.58;;;19.60;65.50;;;;;;6261330;22;20025;-71
2022/10/24 05:19:41;;;;;;;2.95;1.40;;;19.50;65.40;;;;;;6260754;22;20057;-71
2022/10/24 05:22:07;;;;;;;2.75;1.58;;;19.50;65.40;;;;;;6236008;22;20096;-71
2022/10/24 05:24:32;;;;;;;3.42;1.50;;;19.60;65.50;;;;;;6260948;22;20031;-70
2022/10/24 05:26:58;;;;;;;2.83;1.58;;;19.50;65.40;;;;;;6262300;22;20404;-71
2022/10/24 05:29:24;;;;;;;2.55;1.50;;;19.50;65.40;;;;;;6262513;22;20019;-70
2022/10/24 05:31:50;;;;;;;4.30;1.70;;;19.50;65.50;;;;;;6235664;22;20476;-72
2022/10/24 05:34:15;;;;;;;4.07;1.75;;;19.60;65.70;;;;;;6262281;22;20020;-72
2022/10/24 05:36:41;;;;;;;3.85;1.52;;;19.60;65.70;;;;;;6260554;22;20090;-82
2022/10/24 05:39:07;;;;;;;6.65;1.92;;;19.60;65.80;;;;;;6263104;22;20179;-76
2022/10/24 05:41:32;;;;;;;6.15;1.90;;;19.60;65.80;;;;;;6234460;22;20096;-83
2022/10/24 05:43:58;;;;;;;4.72;1.65;;;19.60;65.90;;;;;;6261897;22;20125;-82
2022/10/24 05:46:24;;;;;;;4.53;2.00;;;19.50;65.80;;;;;;6234981;22;20020;-82
2022/10/24 05:48:50;;;;;;;3.78;1.55;;;19.50;65.90;;;;;;6261017;22;20064;-86
2022/10/24 05:51:15;;;;;;;4.60;1.80;;;19.50;65.90;;;;;;6236872;22;20187;-70
2022/10/24 05:53:41;;;;;;;3.97;1.67;;;19.50;65.90;;;;;;6235123;22;20023;-78
2022/10/24 05:56:07;;;;;;;3.40;1.77;;;19.50;66.00;;;;;;6263579;22;20023;-80
2022/10/24 05:58:33;;;;;;;3.92;1.88;;;19.50;66.00;;;;;;6261337;22;20030;-78
2022/10/24 06:00:59;;;;;;;7.85;2.13;;;19.50;66.00;;;;;;6262929;22;20424;-71
2022/10/24 06:03:25;;;;;;;4.38;2.10;;;19.50;65.90;;;;;;6259195;22;20015;-72
2022/10/24 06:05:50;;;;;;;3.85;1.90;;;19.60;65.90;;;;;;6260501;22;20112;-68
2022/10/24 06:08:16;;;;;;;10.88;1.77;;;19.50;65.80;;;;;;6231914;22;20023;-74
2022/10/24 06:10:48;;;;;;;5.43;1.90;;;19.60;65.80;;;;;;6259814;22;20115;-81
2022/10/24 06:13:16;;;;;;;4.15;1.95;;;19.50;65.70;;;;;;6233199;22;20771;-83
2022/10/24 06:15:43;;;;;;;7.70;2.15;;;19.60;65.80;;;;;;6259129;22;20111;-81
2022/10/24 06:18:08;;;;;;;4.50;1.90;;;19.50;65.70;;;;;;6258179;22;20011;-82
2022/10/24 06:20:35;;;;;;;3.95;1.92;;;19.60;65.70;;;;;;6259619;22;20351;-74
2022/10/24 06:23:00;;;;;;;4.32;1.90;;;19.50;65.70;;;;;;6234554;22;20093;-81
2022/10/24 06:25:27;;;;;;;4.70;2.05;;;19.60;65.70;;;;;;6256409;22;20031;-76
2022/10/24 06:27:52;;;;;;;5.65;2.15;;;19.60;65.60;;;;;;6234460;22;20023;-80
2022/10/24 06:30:18;;;;;;;4.43;1.98;;;19.60;65.60;;;;;;6234340;22;20028;-83
2022/10/24 06:32:44;;;;;;;6.38;2.03;;;19.60;65.60;;;;;;6260037;22;20090;-76
2022/10/24 06:35:12;;;;;;;5.78;1.77;;;19.60;65.50;;;;;;6262076;22;20007;-76
2022/10/24 06:37:38;;;;;;;3.92;1.75;;;19.60;65.50;;;;;;6261522;22;20102;-81
2022/10/24 06:40:04;;;;;;;3.78;1.77;;;19.60;65.50;;;;;;6263890;22;20011;-83
2022/10/24 06:42:33;;;;;;;7.68;2.30;;;19.60;65.40;;;;;;6261686;22;20058;-77
2022/10/24 06:44:58;;;;;;;8.38;1.95;;;19.60;65.40;;;;;;6236236;22;20046;-94
2022/10/24 06:47:24;;;;;;;7.95;2.10;;;19.60;65.30;;;;;;6263836;22;20015;-93
2022/10/24 06:49:49;;;;;;;7.65;2.10;;;19.60;65.30;;;;;;6211216;22;20030;-83
2022/10/24 06:52:15;;;;;;;12.00;2.30;;;19.70;65.30;;;;;;6238225;22;20403;-80
2022/10/24 06:54:42;;;;;;;5.43;1.42;;;19.60;65.20;;;;;;6262038;22;20027;-82
2022/10/24 06:57:08;;;;;;;5.97;2.00;;;19.60;65.30;;;;;;6235268;22;20824;-72
2022/10/24 06:59:34;;;;;;;6.43;1.90;;;19.60;65.20;;;;;;6261278;22;20024;-77
2022/10/24 07:02:00;;;;;;;7.40;2.00;;;19.70;65.20;;;;;;6263218;22;20023;-73
2022/10/24 07:04:25;;;;;;;4.28;1.60;;;19.60;65.10;;;;;;6260233;22;20024;-82
2022/10/24 07:06:51;;;;;;;3.83;1.83;;;19.60;65.10;;;;;;6263106;22;20015;-76
2022/10/24 07:09:20;;;;;;;6.30;1.73;;;19.60;64.90;;;;;;6262105;22;20020;-77
2022/10/24 07:11:45;;;;;;;4.22;1.80;;;19.70;64.80;;;;;;6260868;22;20062;-77
2022/10/24 07:14:11;;;;;;;7.05;2.20;;;20.10;64.30;;;;;;6235384;22;20020;-78
2022/10/24 07:16:38;;;;;;;4.57;1.88;;;20.40;63.50;;;;;;6259770;22;20031;-84
2022/10/24 07:19:04;;;;;;;6.63;1.80;;;20.70;62.80;;;;;;6257511;22;20141;-76
2022/10/24 07:21:32;;;;;;;5.55;1.50;;;20.80;62.30;;;;;;6258742;22;20043;-74
2022/10/24 07:23:59;;;;;;;7.05;1.70;;;20.70;62.20;;;;;;6223399;22;20704;-76
2022/10/24 07:26:31;;;;;;;2.42;1.50;;;20.70;62.40;;;;;;6259010;22;20015;-73
2022/10/24 07:29:37;;;;;;;5.93;1.90;;;20.60;62.60;;;;;;6231156;22;20034;-76
2022/10/24 07:32:06;;;;;;;5.72;2.10;;;20.50;62.80;;;;;;6232367;22;20034;-75
2022/10/24 07:34:37;;;;;;;5.60;1.95;;;20.50;63.00;;;;;;6255621;22;20023;-72
2022/10/24 07:37:03;;;;;;;4.80;1.65;;;20.40;63.20;;;;;;6258544;22;20517;-71
2022/10/24 07:39:29;;;;;;;5.85;2.05;;;20.40;63.30;;;;;;6258014;22;20026;-71
2022/10/24 07:41:54;;;;;;;5.80;1.95;;;20.40;63.30;;;;;;6257493;22;20019;-79
2022/10/24 07:44:20;;;;;;;3.97;1.52;;;20.50;63.20;;;;;;6206491;22;20055;-77
2022/10/24 07:46:45;;;;;;;6.13;1.35;;;20.50;62.90;;;;;;6255534;22;20015;-75
2022/10/24 07:49:11;;;;;;;7.15;1.40;;;20.50;62.60;;;;;;6230840;22;20051;-71
2022/10/24 07:51:37;;;;;;;8.15;1.50;;;20.50;62.20;;;;;;6229120;22;20016;-73
2022/10/24 07:54:03;;;;;;;6.63;1.38;;;20.50;62.10;;;;;;6256141;22;20051;-74
2022/10/24 07:56:28;;;;;;;5.47;1.50;;;20.40;61.80;;;;;;6231560;22;20016;-72
2022/10/24 07:58:55;;;;;;;6.13;1.70;;;20.40;61.90;;;;;;6227839;22;20857;-73
2022/10/24 08:01:23;;;;;;;4.80;1.20;;;20.40;61.70;;;;;;6259308;22;20027;-73
2022/10/24 08:03:49;;;;;;;4.95;1.33;;;20.50;61.90;;;;;;6255153;22;20016;-73
2022/10/24 08:06:22;;;;;;;5.03;1.50;;;20.50;61.90;;;;;;6231069;22;20058;-72
2022/10/24 08:08:48;;;;;;;4.75;1.35;;;20.40;61.90;;;;;;6228433;22;20908;-74
2022/10/24 08:11:17;;;;;;;4.88;1.50;;;20.40;62.40;;;;;;6256672;22;20198;-73
2022/10/24 08:13:43;;;;;;;6.60;1.67;;;20.40;62.10;;;;;;6228184;22;20020;-72
2022/10/24 08:16:12;;;;;;;6.20;1.15;;;20.30;61.90;;;;;;6257008;22;20114;-74
2022/10/24 08:18:38;;;;;;;5.55;1.52;;;20.30;61.70;;;;;;6228014;22;20034;-75
2022/10/24 08:21:06;;;;;;;6.57;1.58;;;20.20;61.70;;;;;;6256029;22;20368;-73
2022/10/24 08:23:33;;;;;;;;;;;20.20;61.70;;;;;;6206655;22;20035;-70
2022/10/24 08:25:58;;;;;;;8.63;1.63;;;20.20;61.80;;;;;;6228198;22;19922;-72
2022/10/24 08:28:24;;;;;;;5.38;1.17;;;20.20;61.90;;;;;;6258475;22;20103;-73
2022/10/24 08:31:01;;;;;;;5.13;1.17;;;20.20;61.90;;;;;;6254624;22;20043;-73
2022/10/24 08:33:28;;;;;;;4.07;1.40;;;20.20;61.90;;;;;;6227676;22;20038;-72
2022/10/24 08:36:00;;;;;;;8.98;1.35;;;20.20;62.00;;;;;;6228441;22;20020;-73
2022/10/24 08:38:29;;;;;;;5.10;1.20;;;20.20;61.90;;;;;;6260440;22;20020;-75
2022/10/24 08:41:05;;;;;;;5.63;1.45;;;20.20;62.00;;;;;;6235404;22;20470;-74
2022/10/24 08:43:31;;;;;;;5.13;1.17;;;20.20;62.10;;;;;;6210534;22;20054;-73
2022/10/24 08:46:25;;;;;;;4.25;1.23;;;20.20;62.10;;;;;;6255906;22;20111;-75
2022/10/24 08:48:59;;;;;;;5.15;1.27;;;20.20;61.90;;;;;;6226509;22;20512;-71
2022/10/24 08:51:40;;;;;;;3.85;1.35;;;20.20;62.40;;;;;;6230461;22;20024;-78
2022/10/24 08:54:15;;;;;;;8.35;1.20;;;20.20;61.80;;;;;;6206470;22;20020;-77
2022/10/24 08:56:41;;;;;;;4.57;1.08;;;20.20;61.50;;;;;;6257336;22;20073;-77
2022/10/24 08:59:11;;;;;;;9.88;1.60;;;20.10;61.40;;;;;;6231594;22;20094;-76
2022/10/24 09:01:43;;;;;;;8.80;1.35;;;20.10;61.30;;;;;;6255893;22;20007;-76
2022/10/24 09:04:12;;;;;;;7.75;1.58;;;20.00;61.20;;;;;;6258002;22;20030;-74
2022/10/24 09:06:37;;;;;;;;;;;20.10;61.30;;;;;;6259242;22;20076;-72
2022/10/24 09:09:26;;;;;;;6.35;0.98;;;20.00;61.00;;;;;;6230326;22;20037;-74
2022/10/24 09:11:58;;;;;;;7.97;1.13;;;20.00;61.20;;;;;;6229526;22;20353;-75
2022/10/24 09:14:30;;;;;;;8.23;1.20;;;20.00;61.30;;;;;;6230006;22;20066;-77
2022/10/24 09:17:12;;;;;;;10.63;1.20;;;20.00;61.10;;;;;;6231662;22;20043;-75
2022/10/24 09:19:38;;;;;;;6.22;1.10;;;20.00;61.10;;;;;;6235344;22;20019;-76
2022/10/24 09:22:06;;;;;;;5.35;1.10;;;20.00;61.30;;;;;;6262884;22;20348;-79
2022/10/24 09:24:51;;;;;;;9.10;1.48;;;19.90;61.50;;;;;;6263395;22;20019;-73
2022/10/24 09:27:21;;;;;;;6.90;1.30;;;19.90;61.30;;;;;;6263524;22;20020;-76
2022/10/24 09:29:47;;;;;;;5.43;1.27;;;20.00;61.40;;;;;;6236665;22;20115;-74
2022/10/24 09:32:16;;;;;;;6.47;1.30;;;19.90;61.30;;;;;;6263646;22;20090;-77
2022/10/24 09:34:43;;;;;;;5.95;1.27;;;19.90;61.30;;;;;;6234449;22;20165;-76
2022/10/24 09:37:48;;;;;;;8.75;1.45;;;20.00;61.30;;;;;;6264180;22;20077;-75
2022/10/24 09:40:19;;;;;;;13.82;1.63;;;20.00;61.30;;;;;;6261652;22;20024;-73
2022/10/24 09:43:15;;;;;;;8.60;1.30;;;20.00;61.60;;;;;;6236886;22;20022;-75
2022/10/24 09:45:44;;;;;;;5.30;1.58;;;20.00;61.80;;;;;;6236020;22;20020;-75
2022/10/24 09:48:27;;;;;;;6.35;1.25;;;20.00;61.90;;;;;;6234123;22;20030;-74
2022/10/24 09:50:54;;;;;;;6.18;1.33;;;20.00;62.00;;;;;;6263989;22;20055;-74
2022/10/24 09:53:33;;;;;;;5.13;1.30;;;20.00;62.10;;;;;;6234904;22;20541;-76
2022/10/24 09:56:05;;;;;;;7.47;1.10;;;20.00;62.20;;;;;;6209447;22;20414;-76
2022/10/24 09:58:32;;;;;;;7.32;1.42;;;20.00;62.30;;;;;;6236525;22;20029;-76
2022/10/24 10:01:19;;;;;;;6.57;1.10;;;20.00;62.20;;;;;;6262699;22;20116;-76
2022/10/24 10:04:03;;;;;;;4.80;1.20;;;20.00;62.20;;;;;;6262850;22;20466;-77
2022/10/24 10:06:31;;;;;;;7.03;1.23;;;20.10;62.40;;;;;;6234944;22;20031;-78
2022/10/24 10:08:57;;;;;;;3.63;1.00;;;20.10;62.40;;;;;;6236398;22;20637;-77
2022/10/24 10:11:26;;;;;;;3.58;1.00;;;20.10;62.50;;;;;;6262884;22;20106;-76
2022/10/24 10:13:54;;;;;;;;;;;20.10;62.50;;;;;;6210283;22;20020;-76
2022/10/24 10:16:27;;;;;;;8.40;1.52;;;20.10;62.50;;;;;;6262162;22;19938;-73
2022/10/24 10:19:12;;;;;;;7.47;1.30;;;20.10;62.50;;;;;;6261581;22;20433;-77
2022/10/24 10:22:00;;;;;;;5.13;1.10;;;20.20;62.50;;;;;;6236537;22;20023;-75
2022/10/24 10:24:39;;;;;;;7.65;1.30;;;20.10;62.30;;;;;;6263736;22;20077;-76
2022/10/24 10:27:25;;;;;;;9.07;1.23;;;20.10;62.30;;;;;;6233603;22;20011;-75
2022/10/24 10:30:10;;;;;;;11.20;1.23;;;20.10;62.30;;;;;;6237103;22;20030;-77
2022/10/24 10:32:50;;;;;;;7.07;1.08;;;20.20;62.20;;;;;;6234474;22;20019;-77
2022/10/24 10:35:25;;;;;;;5.60;1.10;;;20.10;62.20;;;;;;6235306;22;20445;-77
2022/10/24 10:38:01;;;;;;;4.65;1.13;;;20.20;62.20;;;;;;6263617;22;20528;-77
2022/10/24 10:40:53;;;;;;;2.92;0.95;;;20.10;62.10;;;;;;6261709;22;20035;-76
2022/10/24 10:43:53;;;;;;;9.05;1.27;;;20.10;62.10;;;;;;6216126;22;20415;-77
2022/10/24 10:46:41;;;;;;;4.25;0.95;;;20.20;62.20;;;;;;6235670;22;20027;-75
2022/10/24 10:49:07;;;;;;;;;;;20.10;62.10;;;;;;6233488;22;20166;-73
2022/10/24 10:51:46;;;;;;;3.17;1.00;;;20.10;62.10;;;;;;6235697;22;20083;-76
2022/10/24 10:54:20;;;;;;;5.55;1.10;;;20.20;62.20;;;;;;6261059;22;20034;-77
2022/10/24 10:56:58;;;;;;;4.45;1.20;;;20.20;62.30;;;;;;6232529;22;20539;-76
2022/10/24 10:59:38;;;;;;;6.18;1.00;;;20.20;62.30;;;;;;6262121;22;20016;-78
2022/10/24 11:02:19;;;;;;;4.25;1.10;;;20.20;62.50;;;;;;6234531;22;20605;-77
2022/10/24 11:05:07;;;;;;;4.88;1.10;;;20.20;62.40;;;;;;6234933;22;20019;-74
2022/10/24 11:07:43;;;;;;;;;;;20.20;62.50;;;;;;6234091;22;20116;-75
2022/10/24 11:10:14;;;;;;;4.32;0.80;;;20.20;62.50;;;;;;6235619;22;19915;-77
2022/10/24 11:12:42;;;;;;;2.33;0.88;;;20.30;62.50;;;;;;6235997;22;20685;-75
2022/10/24 11:15:19;;;;;;;6.07;1.00;;;20.30;62.60;;;;;;6235391;22;20019;-78
2022/10/24 11:17:49;;;;;;;3.88;1.00;;;20.30;62.60;;;;;;6232778;22;20107;-76
2022/10/24 11:20:17;;;;;;;3.58;1.08;;;20.30;62.50;;;;;;6261038;22;20014;-77
2022/10/24 11:22:49;;;;;;;;;;;20.30;62.40;;;;;;6235691;22;20033;-83
2022/10/24 11:25:35;;;;;;;2.17;0.80;;;20.30;62.30;;;;;;6263338;22;19915;-83
2022/10/24 11:28:21;;;;;;;6.25;1.00;;;20.30;62.30;;;;;;6261192;22;20091;-73
2022/10/24 11:31:00;;;;;;;5.40;0.90;;;20.30;62.30;;;;;;6265197;22;20055;-87
2022/10/24 11:33:34;;;;;;;5.13;0.90;;;20.30;62.30;;;;;;6260149;22;20025;-82
2022/10/24 11:36:17;;;;;;;3.97;1.10;;;20.30;62.40;;;;;;6237200;22;20080;-84
2022/10/24 11:38:48;;;;;;;8.82;1.00;;;20.30;62.50;;;;;;6236942;22;20027;-82
2022/10/24 11:41:30;;;;;;;5.95;1.20;;;20.30;62.90;;;;;;6239370;22;20024;-84
2022/10/24 11:44:16;;;;;;;3.15;1.10;;;20.40;62.70;;;;;;6265029;22;20520;-80
2022/10/24 11:46:48;;;;;;;6.38;1.35;;;20.40;62.80;;;;;;6237230;22;20099;-86
2022/10/24 11:49:33;;;;;;;4.50;1.40;;;20.30;62.70;;;;;;6239726;22;20034;-80
2022/10/24 11:52:22;;;;;;;2.58;1.20;;;20.40;63.00;;;;;;6270677;22;20094;-93
2022/10/24 11:54:54;;;;;;;5.05;1.15;;;20.40;62.80;;;;;;6237318;22;20106;-83
2022/10/24 11:57:27;;;;;;;3.60;1.40;;;20.40;63.20;;;;;;6262767;22;20015;-90
2022/10/24 11:59:54;;;;;;;5.07;1.58;;;20.40;63.00;;;;;;6239154;22;20027;-90
2022/10/24 12:02:59;;;;;;;5.30;1.33;;;20.40;62.90;;;;;;6249523;22;20011;-73
2022/10/24 12:05:27;;;;;;;3.65;1.20;;;20.40;62.90;;;;;;6235189;22;20031;-79
2022/10/24 12:08:07;;;;;;;6.03;1.63;;;20.40;63.10;;;;;;6260694;22;20024;-86
2022/10/24 12:10:50;;;;;;;7.43;1.48;;;20.40;62.90;;;;;;6230163;23;20016;-84
2022/10/24 12:13:58;;;;;;;8.88;1.40;;;20.40;62.80;;;;;;6229464;23;20082;-87
2022/10/24 12:17:07;;;;;;;3.50;1.30;;;20.40;62.80;;;;;;6230932;22;20020;-90
2022/10/24 12:19:35;;;;;;;6.13;1.23;;;20.40;62.80;;;;;;6203672;23;20020;-84
2022/10/24 12:22:03;;;;;;;3.67;1.25;;;20.40;62.70;;;;;;6231984;23;20016;-91
2022/10/24 12:24:40;;;;;;;8.07;1.30;;;20.40;62.70;;;;;;6233046;23;20024;-86
2022/10/24 12:27:19;;;;;;;6.15;1.60;;;20.50;62.70;;;;;;6235286;23;20923;-84
2022/10/24 12:29:58;;;;;;;7.07;1.38;;;20.40;62.70;;;;;;6232779;23;20740;-91
2022/10/24 12:32:39;;;;;;;4.90;1.20;;;20.50;62.80;;;;;;6239597;22;20058;-88
2022/10/24 12:35:30;;;;;;;9.27;1.58;;;20.50;62.80;;;;;;6234455;23;20024;-81
2022/10/24 12:37:56;;;;;;;4.75;1.70;;;20.50;62.90;;;;;;6233885;22;21305;-84
2022/10/24 12:40:43;;;;;;;5.00;1.55;;;20.50;62.90;;;;;;6237217;23;20012;-76
2022/10/24 12:43:47;;;;;;;5.68;1.60;;;20.50;62.90;;;;;;6233370;23;20027;-80
2022/10/24 12:46:13;;;;;;;9.27;1.70;;;20.50;62.90;;;;;;6111057;23;20025;-81
2022/10/24 12:48:41;;;;;;;5.72;1.40;;;20.40;62.80;;;;;;6204584;23;20020;-76
2022/10/24 12:51:26;;;;;;;3.85;1.33;;;20.40;62.80;;;;;;6232336;23;20036;-75
2022/10/24 12:54:26;;;;;;;4.30;1.40;;;20.50;63.00;;;;;;6233918;22;20034;-73
2022/10/24 12:56:51;;;;;;;4.18;1.35;;;20.40;63.00;;;;;;6230430;23;20031;-75
2022/10/24 12:59:34;;;;;;;6.65;1.63;;;20.40;63.00;;;;;;6231450;23;20104;-85
2022/10/24 13:02:14;;;;;;;4.03;1.35;;;20.40;63.00;;;;;;6234003;23;20024;-78
2022/10/24 13:05:03;;;;;;;4.05;1.17;;;20.40;63.10;;;;;;6228661;23;20020;-75
2022/10/24 13:08:03;;;;;;;1.88;1.20;;;20.40;63.10;;;;;;6232247;23;20451;-75
2022/10/24 13:10:28;;;;;;;3.95;1.20;;;20.40;63.00;;;;;;6229824;23;20710;-73